Warsaw, IN (46580)

9:12 PM EDT on August 29, 2015 (GMT -0400)
15 South | | Change Station
CLOSE
Current Station
Personal Weather Station
Location: Warsaw, IN
Elevation: 840 ft
Nearby Weather Stations

Elev 840 ft 41.22 °N, 85.87 °W | Updated 1 minute ago

Light Rain
Light Rain
70.2 °F
Feels Like 70.2 °F
N
4.0
Wind Variable Wind from SW
Gusts 6.0 mph

Today
High -- | Low -- °F
--% Chance of Precip.
Yesterday
High -- | Low -- °F
Precip. -- in
7:06 AM 8:21 PM
Full, 100% visible
Pressure 30.05 in
Visibility 5.0 miles
Clouds Scattered Clouds 3600 ft
Mostly Cloudy 6000 ft
Overcast 7000 ft
Dew Point 69 °F
Humidity 95%
Rainfall 0.18 in
Snow Depth Not available.
UV 0 out of 12
Pollen 9.30 out of 12
Air Quality Not available.
Flu Activity Not available.
METAR KASW 300055Z AUTO 13003KT 5SM -RA SCT036 BKN060 OVC070 21/21 A3005 RMK AO2
Pressure 30.05 in
Visibility 5.0 miles
Clouds Scattered Clouds 3600 ft
Mostly Cloudy 6000 ft
Overcast 7000 ft
Dew Point 69 °F
Humidity 95%
Rainfall 0.18 in
Snow Depth Not available.
UV 0 out of 12
Pollen 9.30 out of 12
Air Quality Not available.
Flu Activity Not available.
METAR KASW 300055Z AUTO 13003KT 5SM -RA SCT036 BKN060 OVC070 21/21 A3005 RMK AO2

10-Day Weather Forecast

×

Almanac

Astronomy

Aug. 29, 2015 Rise Set
Actual Time
Civil Twilight
Nautical Twilight
Astronomical Twilight
Moon
Length of Visible Light
Length of Day
Tomorrow will be .
, % of the Moon is Illuminated

Today's Extremes

State Highs State Lows

Community

WunderPhotos

Upload Photos

1,850,827 photos uploaded!

WunderBlogs® & News

Nearby

Air Quality

  Air Quality AQ Index Pollutant
Not available.

Snow Depth

Station Depth Elevation

Earthquake Activity

City Distance Mag. Time & Date
Minimum magnitude displayed is 2.5.

Coastal Water Temperatures

Place Temperature

Stations

Nearby Weather Stations

Station Location Temp. Windchill Dew Point Humidity Wind Precip. Elev Updated Type